CheckWX is a tool to help pilots better visualize weather data.  It is not intended as a substitute for an official pre-flight weather briefing.

11:34:12 UTC

KLCG METAR
Wayne Municipal / Stan Morris Field Airport
Wayne, Nebraska, USA
Current

19 mins ago

KLCG 261115Z AUTO 21005KT 5SM BR CLR M08/M10 A2993 RMK AO2 T10841097
Observed
Jan-26 @ 11:15 UTC
Wind
  • 210° at 5 KTS
Visibility
5 SM
Flight Rules
MVFR
Conditions
Mist
Cloud Levels
  • Clear skies
Temperature
-8°C / 18°F
Dewpoint
-10°C / 14°F
Humidity
86%
Altimeter
29.93" Hg
Pressure
1013.52 hPa
Previous

39 mins ago

KLCG 261055Z AUTO 23003KT 5SM BR CLR M09/M10 A2994 RMK AO2 T10891102
Observed
Jan-26 @ 10:55 UTC
Wind
  • 230° at 3 KTS
Visibility
5 SM
Flight Rules
MVFR
Conditions
Mist
Cloud Levels
  • Clear skies
Temperature
-9°C / 16°F
Dewpoint
-10°C / 14°F
Humidity
93%
Altimeter
29.94" Hg
Pressure
1013.92 hPa
Previous

59 mins ago

KLCG 261035Z AUTO 00000KT 5SM BR CLR M08/M09 A2994 RMK AO2 T10791091
Observed
Jan-26 @ 10:35 UTC
Visibility
5 SM
Flight Rules
MVFR
Conditions
Mist
Cloud Levels
  • Clear skies
Temperature
-8°C / 18°F
Dewpoint
-9°C / 16°F
Humidity
93%
Altimeter
29.94" Hg
Pressure
1013.92 hPa